Borden, Canada
Current Conditions -  °F | °C
As of 4:00 AM on Friday 19 Dec 2014 (Local Time) from CYQV Reporting Station
Haze Haze  
Wind Chill: 15°   Ceiling: 700
Heat Index: 21°   Visibility: 4mi
Dew Point: 19°   Wind: 5mph
Humidity: 93%   Direction: 140°SE
Pressure: 29.92"   Gusts: NA
Location:  52.4°N, 102.23°W
Report Text: CYQV 191000Z AUTO 14004KT 4SM BR OVC007 M06/M07 A2992 RMK SLP166
Loading
Personal Weather Stations






























Interactive Weather Map New forecast layout! Learn more

10-Day Weather Forecast

Advertisements
Track Severe Weather on mobile